Time;durP1;ratioP1;P1;durP2;ratioP2;P2;SDS_P1;SDS_P2;PMS_P1;PMS_P2;Temp;Humidity;BMP_temperature;BMP_pressure;BME280_temperature;BME280_humidity;BME280_pressure;Samples;Min_cycle;Max_cycle;Signal;HPM_P1;HPM_P2
2022/11/16 00:00:22;;;;;;;8.40;7.63;;;;;;;10.59;100.00;99830.53;5228923;28;20025;-69
2022/11/16 00:02:53;;;;;;;8.35;7.75;;;;;;;10.57;100.00;99829.19;5228915;28;20032;-68
2022/11/16 00:05:24;;;;;;;10.10;8.90;;;;;;;10.56;100.00;99822.97;5228954;28;20028;-68
2022/11/16 00:07:55;;;;;;;8.45;7.88;;;;;;;10.56;100.00;99832.97;5228821;28;20039;-68
2022/11/16 00:10:25;;;;;;;7.85;7.35;;;;;;;10.57;100.00;99848.09;5228785;28;20020;-68
2022/11/16 00:12:56;;;;;;;9.05;8.30;;;;;;;10.60;100.00;99851.03;5228902;28;20023;-68
2022/11/16 00:15:26;;;;;;;8.88;8.13;;;;;;;10.46;100.00;99818.44;5229231;28;20028;-67
2022/11/16 00:17:57;;;;;;;9.13;8.52;;;;;;;10.63;100.00;99842.38;5229380;28;20055;-67
2022/11/16 00:20:27;;;;;;;9.43;8.70;;;;;;;10.60;100.00;99848.34;5228705;28;20090;-67
2022/11/16 00:22:57;;;;;;;8.95;8.27;;;;;;;10.60;100.00;99840.25;5228669;28;20032;-68
2022/11/16 00:25:28;;;;;;;7.50;6.97;;;;;;;10.60;100.00;99842.94;5228595;28;20438;-68
2022/11/16 00:27:58;;;;;;;8.15;7.57;;;;;;;10.60;100.00;99840.25;5228279;28;20473;-68
2022/11/16 00:30:29;;;;;;;9.25;8.57;;;;;;;10.60;100.00;99825.94;5228447;28;20016;-68
2022/11/16 00:33:00;;;;;;;9.15;8.52;;;;;;;10.58;100.00;99836.19;5228333;28;20067;-69
2022/11/16 00:35:31;;;;;;;7.43;6.93;;;;;;;10.56;100.00;99828.38;5228104;28;20540;-68
2022/11/16 00:38:01;;;;;;;7.80;7.38;;;;;;;10.54;100.00;99830.56;5228557;28;20108;-67
2022/11/16 00:40:32;;;;;;;7.93;7.45;;;;;;;10.55;100.00;99834.06;5227918;28;20024;-67
2022/11/16 00:43:03;;;;;;;8.30;7.75;;;;;;;10.40;100.00;99807.97;5228662;28;20028;-68
2022/11/16 00:45:33;;;;;;;8.52;7.90;;;;;;;10.56;100.00;99839.19;5228242;28;20028;-68
2022/11/16 00:48:04;;;;;;;13.48;7.78;;;;;;;10.57;100.00;99831.88;5228668;28;20403;-66
2022/11/16 00:50:34;;;;;;;11.23;6.10;;;;;;;10.46;100.00;99813.06;5228223;28;20473;-67
2022/11/16 00:53:06;;;;;;;9.35;8.45;;;;;;;10.53;100.00;99812.75;5231957;28;20485;-68
2022/11/16 00:55:36;;;;;;;9.05;8.35;;;;;;;10.59;100.00;99818.91;5232577;28;20024;-68
2022/11/16 00:58:07;;;;;;;8.70;8.07;;;;;;;10.57;100.00;99818.41;5250380;28;20074;-68
2022/11/16 01:00:38;;;;;;;9.45;6.90;;;;;;;10.44;100.00;99801.72;5232650;28;20028;-67
2022/11/16 01:03:09;;;;;;;9.02;8.23;;;;;;;10.34;100.00;99787.53;5232052;28;20028;-67
2022/11/16 01:05:39;;;;;;;7.13;6.50;;;;;;;10.57;100.00;99821.09;5232063;28;20498;-68
2022/11/16 01:08:10;;;;;;;7.85;7.25;;;;;;;10.56;100.00;99822.19;5231825;28;20029;-68
2022/11/16 01:10:40;;;;;;;8.40;7.90;;;;;;;10.51;100.00;99809.53;5231843;28;20035;-69
2022/11/16 01:13:11;;;;;;;7.30;6.70;;;;;;;10.62;100.00;99827.25;5231902;28;20122;-68
2022/11/16 01:15:46;;;;;;;8.68;7.88;;;;;;;10.61;100.00;99828.34;5232300;28;20029;-68
2022/11/16 01:18:17;;;;;;;7.75;7.25;;;;;;;10.58;100.00;99823.50;5232266;28;20028;-68
2022/11/16 01:20:47;;;;;;;8.20;7.60;;;;;;;10.48;100.00;99810.06;5249355;28;20025;-68
2022/11/16 01:23:18;;;;;;;8.40;7.90;;;;;;;10.60;100.00;99834.84;5232036;28;20111;-68
2022/11/16 01:25:56;;;;;;;8.10;7.60;;;;;;;10.60;100.00;99839.44;5231544;28;20032;-68
2022/11/16 01:28:28;;;;;;;7.88;7.25;;;;;;;10.60;100.00;99842.94;5231971;28;20119;-68
2022/11/16 01:30:59;;;;;;;7.90;7.30;;;;;;;10.63;100.00;99846.97;5249449;28;20551;-66
2022/11/16 01:33:29;;;;;;;8.45;7.85;;;;;;;10.60;100.00;99842.13;5240759;22;20504;-73
2022/11/16 01:36:00;;;;;;;12.05;7.97;;;;;;;10.62;100.00;99842.66;5228025;28;20021;-72
2022/11/16 01:38:31;;;;;;;4.80;4.40;;;;;;;10.45;100.00;99853.81;5229075;28;20033;-70
2022/11/16 01:41:01;;;;;;;5.63;5.15;;;;;;;10.24;100.00;99855.03;5229548;28;20017;-72
2022/11/16 01:44:01;;;;;;;9.40;4.90;;;;;;;10.15;100.00;99860.97;5227875;28;20024;-69
2022/11/16 01:46:32;;;;;;;5.25;3.70;;;;;;;10.07;100.00;99853.47;5227871;28;20021;-73
2022/11/16 01:49:07;;;;;;;4.07;3.78;;;;;;;10.02;100.00;99856.19;5227651;28;20435;-71
2022/11/16 01:51:52;;;;;;;3.72;3.42;;;;;;;9.98;100.00;99847.03;5228168;28;20029;-71
2022/11/16 01:54:23;;;;;;;3.97;3.67;;;;;;;9.85;100.00;99844.91;5227544;28;20048;-71
2022/11/16 01:56:55;;;;;;;4.22;3.92;;;;;;;9.86;100.00;99846.53;5227647;28;20059;-70
2022/11/16 01:59:27;;;;;;;4.60;4.15;;;;;;;9.81;100.00;99835.78;5227240;28;20507;-70
2022/11/16 02:01:59;;;;;;;5.30;3.75;;;;;;;9.80;100.00;99845.78;5227538;28;20054;-70
2022/11/16 02:04:29;;;;;;;5.47;4.93;;;;;;;9.76;100.00;99838.50;5227333;28;20455;-69
2022/11/16 02:07:06;;;;;;;3.88;3.58;;;;;;;9.74;100.00;99833.38;5227561;28;20117;-69
2022/11/16 02:10:08;;;;;;;3.58;3.38;;;;;;;9.73;100.00;99845.25;5228266;28;20503;-70
2022/11/16 02:13:21;;;;;;;6.32;4.90;;;;;;;9.49;100.00;99803.81;5212974;28;20033;-71
2022/11/16 02:16:10;;;;;;;3.60;3.33;;;;;;;9.68;100.00;99839.06;5197021;28;20047;-71
2022/11/16 02:19:14;;;;;;;4.22;4.03;;;;;;;9.64;100.00;99836.09;5227278;28;20032;-70
2022/11/16 02:22:04;;;;;;;5.00;4.60;;;;;;;9.61;100.00;99836.66;5190269;28;20080;-70
2022/11/16 02:25:25;;;;;;;3.83;3.58;;;;;;;9.60;100.00;99845.81;5227227;28;20086;-70
2022/11/16 02:28:33;;;;;;;5.03;4.55;;;;;;;9.55;100.00;99839.63;5193911;28;20496;-69
2022/11/16 02:31:07;;;;;;;4.47;4.05;;;;;;;9.53;100.00;99845.28;5227048;28;20666;-70
2022/11/16 02:33:40;;;;;;;4.25;4.00;;;;;;;9.54;100.00;99843.41;5226931;28;20036;-70
2022/11/16 02:36:17;;;;;;;4.25;4.05;;;;;;;9.52;100.00;99850.97;5227134;28;20059;-70
2022/11/16 02:38:55;;;;;;;3.50;3.30;;;;;;;9.47;100.00;99843.72;5226948;28;20397;-70
2022/11/16 02:41:30;;;;;;;5.15;3.85;;;;;;;9.41;100.00;99845.59;5226863;28;20024;-70
2022/11/16 02:44:07;;;;;;;6.53;3.85;;;;;;;9.31;100.00;99840.22;5227008;28;20060;-70
2022/11/16 02:46:40;;;;;;;4.15;3.95;;;;;;;9.31;100.00;99844.81;5228031;28;20049;-70
2022/11/16 02:49:15;;;;;;;4.47;4.07;;;;;;;9.32;100.00;99852.63;5228037;28;20043;-71
2022/11/16 02:51:47;;;;;;;4.45;4.15;;;;;;;9.31;100.00;99856.41;5227375;28;20017;-69
2022/11/16 02:54:20;;;;;;;6.53;5.18;;;;;;;9.25;100.00;99852.09;5226454;28;20037;-70
2022/11/16 02:57:12;;;;;;;5.72;4.97;;;;;;;9.29;100.00;99866.63;5225795;28;20439;-70
2022/11/16 02:59:47;;;;;;;6.15;4.07;;;;;;;9.25;100.00;99857.47;5226466;28;20036;-69
2022/11/16 03:02:36;;;;;;;6.22;5.82;;;;;;;9.19;100.00;99863.97;5227799;28;20032;-70
2022/11/16 03:05:15;;;;;;;5.87;5.37;;;;;;;9.09;100.00;99853.19;5225894;28;20166;-70
2022/11/16 03:08:01;;;;;;;5.30;5.00;;;;;;;9.02;100.00;99856.16;5226745;28;20400;-70
2022/11/16 03:13:32;;;;;;;5.60;5.10;;;;;;;8.87;100.00;99861.56;5228165;28;20066;-70
2022/11/16 03:16:10;;;;;;;6.63;5.82;;;;;;;8.82;100.00;99852.66;5225367;28;20036;-70
2022/11/16 03:18:43;;;;;;;6.72;6.18;;;;;;;8.90;100.00;99865.59;5226474;28;20397;-70
2022/11/16 03:21:35;;;;;;;6.93;6.20;;;;;;;8.95;100.00;99874.47;5226406;28;20278;-70
2022/11/16 03:24:07;;;;;;;7.10;6.63;;;;;;;8.80;100.00;99859.13;5227671;28;20025;-71
2022/11/16 03:26:53;;;;;;;7.97;7.45;;;;;;;8.83;100.00;99875.81;5226488;28;20060;-71
2022/11/16 03:29:39;;;;;;;7.95;6.80;;;;;;;8.86;100.00;99884.16;5227908;28;20047;-70
2022/11/16 03:32:42;;;;;;;9.07;8.27;;;;;;;8.88;100.00;99900.06;5225950;28;20052;-72
2022/11/16 03:35:26;;;;;;;8.77;8.25;;;;;;;8.94;100.00;99893.59;5206782;28;20051;-70
2022/11/16 03:37:59;;;;;;;7.28;6.78;;;;;;;8.98;100.00;99889.28;5226483;28;20029;-69
2022/11/16 03:40:33;;;;;;;8.77;7.97;;;;;;;9.02;100.00;99901.13;5227162;28;20049;-70
2022/11/16 03:43:06;;;;;;;7.50;7.00;;;;;;;8.91;100.00;99888.75;5226143;28;20025;-70
2022/11/16 03:45:37;;;;;;;12.68;9.13;;;;;;;8.87;100.00;99879.59;5226889;28;20074;-69
2022/11/16 03:48:08;;;;;;;9.18;7.75;;;;;;;8.96;100.00;99908.38;5225782;28;20043;-70
2022/11/16 03:50:39;;;;;;;8.25;7.80;;;;;;;8.76;100.00;99893.03;5226321;28;20029;-70
2022/11/16 03:53:09;;;;;;;10.43;7.70;;;;;;;8.74;100.00;99905.94;5225872;28;20024;-70
2022/11/16 03:55:40;;;;;;;7.97;7.28;;;;;;;8.82;100.00;99923.47;5226289;28;20052;-70
2022/11/16 03:58:10;;;;;;;12.63;9.07;;;;;;;8.76;100.00;99905.69;5225776;28;20048;-70
2022/11/16 04:00:41;;;;;;;9.45;8.52;;;;;;;8.84;100.00;99909.75;5225955;28;20112;-70
2022/11/16 04:03:11;;;;;;;11.98;8.30;;;;;;;8.65;100.00;99885.22;5227614;28;20029;-70
2022/11/16 04:25:49;;;;;;;12.27;7.80;;;;;;;8.70;100.00;99923.72;5226145;28;20090;-69
2022/11/16 04:28:24;;;;;;;7.38;6.97;;;;;;;8.73;100.00;99922.38;5225477;28;20550;-69
2022/11/16 04:39:29;;;;;;;6.40;5.80;;;;;;;8.28;100.00;99921.16;5226431;28;20044;-69
2022/11/16 04:42:14;;;;;;;7.13;6.53;;;;;;;8.15;100.00;99921.63;5225143;28;20036;-70
2022/11/16 04:47:34;;;;;;;8.07;7.18;;;;;;;7.83;100.00;99910.19;5225936;28;20055;-70
2022/11/16 04:50:05;;;;;;;6.95;6.40;;;;;;;7.79;100.00;99915.28;5226274;28;20021;-70
2022/11/16 04:52:35;;;;;;;6.85;6.35;;;;;;;7.70;100.00;99916.84;5225193;28;20025;-70
2022/11/16 04:55:06;;;;;;;5.95;5.45;;;;;;;7.50;100.00;99901.41;5224985;28;20395;-69
2022/11/16 04:57:37;;;;;;;6.78;6.22;;;;;;;7.34;100.00;99892.44;5225017;28;20035;-70
2022/11/16 05:00:09;;;;;;;7.78;7.15;;;;;;;7.45;100.00;99922.88;5226183;28;20021;-70
2022/11/16 05:02:39;;;;;;;6.78;6.35;;;;;;;7.38;100.00;99917.72;5224959;28;20065;-70
2022/11/16 05:05:10;;;;;;;6.10;5.80;;;;;;;7.28;100.00;99914.13;5224746;28;20025;-70
2022/11/16 05:07:41;;;;;;;6.97;6.40;;;;;;;7.14;100.00;99905.72;5225203;28;20055;-69
2022/11/16 05:10:13;;;;;;;6.78;6.43;;;;;;;7.20;100.00;99915.44;5224896;28;20125;-70
2022/11/16 05:12:43;;;;;;;7.00;6.03;;;;;;;7.17;100.00;99923.19;5224955;28;20029;-69
2022/11/16 05:15:16;;;;;;;7.63;7.00;;;;;;;7.20;100.00;99922.69;5225993;28;20051;-69
2022/11/16 05:17:46;;;;;;;6.97;5.13;;;;;;;7.17;100.00;99921.31;5224813;28;20028;-68
2022/11/16 05:24:32;;;;;;;7.78;7.18;;;;;;;7.17;100.00;99917.81;5226789;28;20382;-69
2022/11/16 05:25:56;;;;;;;17.80;6.45;;;;;;;7.16;100.00;99924.25;5226011;28;20057;-69
2022/11/16 05:28:27;;;;;;;8.23;6.28;;;;;;;7.10;100.00;99918.03;5224874;28;20048;-69
2022/11/16 05:30:57;;;;;;;7.13;6.38;;;;;;;7.09;100.00;99919.09;5225746;28;20013;-70
2022/11/16 05:33:28;;;;;;;8.75;7.28;;;;;;;7.04;100.00;99924.41;5224498;28;20138;-71
2022/11/16 05:35:58;;;;;;;5.93;5.53;;;;;;;6.97;100.00;99913.06;5224491;28;20037;-69
2022/11/16 05:38:29;;;;;;;8.00;6.38;;;;;;;6.95;100.00;99932.13;5226769;28;20025;-69
2022/11/16 05:40:59;;;;;;;7.50;6.38;;;;;;;6.92;100.00;99934.53;5227849;28;20025;-69
2022/11/16 05:43:29;;;;;;;15.23;7.32;;;;;;;6.82;100.00;99927.19;5227020;28;20044;-70
2022/11/16 05:46:00;;;;;;;7.35;6.70;;;;;;;6.77;100.00;99935.19;5228357;28;20033;-69
2022/11/16 05:48:30;;;;;;;8.50;7.95;;;;;;;6.73;100.00;99934.06;5228223;28;20029;-69
2022/11/16 05:51:01;;;;;;;15.25;7.75;;;;;;;6.73;100.00;99936.75;5229483;28;20067;-69
2022/11/16 05:53:31;;;;;;;8.82;8.05;;;;;;;6.58;100.00;99915.94;5227635;28;20285;-69
2022/11/16 05:56:02;;;;;;;9.68;8.75;;;;;;;6.83;100.00;99949.47;5227696;28;20025;-69
2022/11/16 05:58:32;;;;;;;16.67;10.50;;;;;;;6.91;100.00;99954.38;5227983;28;20021;-70
2022/11/16 06:01:03;;;;;;;11.32;10.18;;;;;;;6.89;100.00;99946.59;5228796;28;20028;-69
2022/11/16 06:03:37;;;;;;;14.25;8.52;;;;;;;6.84;100.00;99943.84;5226582;28;20032;-69
2022/11/16 06:06:08;;;;;;;9.75;8.85;;;;;;;6.83;100.00;99954.81;5227009;28;20116;-70
2022/11/16 06:08:38;;;;;;;11.73;9.43;;;;;;;6.81;100.00;99952.41;5227333;28;20112;-69
2022/11/16 06:11:09;;;;;;;9.43;8.43;;;;;;;6.75;100.00;99948.03;5225160;28;20028;-68
2022/11/16 06:13:40;;;;;;;9.40;8.50;;;;;;;6.68;100.00;99948.22;5226046;28;20028;-68
2022/11/16 06:16:10;;;;;;;9.93;8.20;;;;;;;6.53;100.00;99926.63;5227652;28;20397;-69
2022/11/16 06:18:43;;;;;;;11.68;9.32;;;;;;;6.67;100.00;99946.59;5227750;28;20056;-68
2022/11/16 06:21:17;;;;;;;12.18;9.10;;;;;;;6.70;100.00;99959.53;5227476;28;20074;-68
2022/11/16 06:23:48;;;;;;;9.07;8.38;;;;;;;6.68;100.00;99956.28;5227288;28;20167;-68
2022/11/16 06:26:18;;;;;;;19.02;8.93;;;;;;;6.60;100.00;99954.06;5227361;28;20025;-69
2022/11/16 06:28:48;;;;;;;9.07;8.27;;;;;;;6.64;100.00;99962.44;5227417;28;20025;-69
2022/11/16 06:31:19;;;;;;;10.52;9.13;;;;;;;6.63;100.00;99960.81;5226930;28;20401;-69
2022/11/16 06:33:50;;;;;;;8.77;7.63;;;;;;;6.57;100.00;99959.94;5226733;28;20070;-69
2022/11/16 06:36:20;;;;;;;8.57;7.93;;;;;;;6.57;100.00;99964.47;5226697;28;20079;-68
2022/11/16 06:38:50;;;;;;;18.58;7.35;;;;;;;6.51;100.00;99965.47;5226349;28;20028;-69
2022/11/16 06:41:21;;;;;;;7.05;6.50;;;;;;;6.50;100.00;99964.66;5226842;28;20021;-69
2022/11/16 06:43:55;;;;;;;9.75;6.75;;;;;;;6.47;100.00;99965.16;5227672;28;20028;-68
2022/11/16 06:46:25;;;;;;;12.77;7.15;;;;;;;6.49;100.00;99970.28;5226586;28;20033;-69
2022/11/16 06:48:56;;;;;;;8.07;7.40;;;;;;;6.35;100.00;99949.19;5226047;28;20078;-69
2022/11/16 06:51:27;;;;;;;6.82;6.43;;;;;;;6.49;100.00;99979.16;5226339;28;20060;-70
2022/11/16 06:53:57;;;;;;;8.07;6.30;;;;;;;6.38;100.00;99966.66;5226493;28;20059;-71
2022/11/16 06:56:28;;;;;;;10.05;6.60;;;;;;;6.47;100.00;99972.41;5225864;28;20061;-69
2022/11/16 06:58:58;;;;;;;5.80;5.40;;;;;;;6.47;100.00;99981.25;5224834;28;20025;-69
2022/11/16 07:01:29;;;;;;;7.53;6.82;;;;;;;6.36;100.00;99985.69;5226078;28;20104;-69
2022/11/16 07:03:59;;;;;;;7.28;5.82;;;;;;;6.37;100.00;99992.66;5225994;28;20550;-69
2022/11/16 07:06:30;;;;;;;9.70;7.00;;;;;;;6.29;100.00;99986.94;5226424;28;20397;-69
2022/11/16 07:09:00;;;;;;;8.70;8.10;;;;;;;6.36;100.00;99998.28;5226453;28;20028;-68
2022/11/16 07:11:30;;;;;;;18.98;11.27;;;;;;;6.35;100.00;99997.47;5226147;28;20028;-69
2022/11/16 07:14:02;;;;;;;35.05;12.82;;;;;;;6.42;100.00;99994.59;5225960;28;20020;-66
2022/11/16 07:16:35;;;;;;;8.60;7.93;;;;;;;6.31;100.00;99992.88;5225492;28;20078;-66
2022/11/16 07:19:06;;;;;;;14.57;7.43;;;;;;;6.24;100.00;99978.84;5225267;28;20021;-66
2022/11/16 07:21:37;;;;;;;17.38;8.40;;;;;;;6.43;100.00;99997.03;5225781;28;20033;-66
2022/11/16 07:24:08;;;;;;;9.25;6.40;;;;;;;6.46;100.00;99994.91;5225674;28;20029;-66
2022/11/16 07:26:38;;;;;;;10.48;8.07;;;;;;;6.46;100.00;99986.88;5226113;28;20029;-66
2022/11/16 07:29:08;;;;;;;13.82;7.78;;;;;;;6.51;100.00;99997.66;5226971;28;20025;-66
2022/11/16 07:31:39;;;;;;;17.58;6.97;;;;;;;6.36;100.00;99971.47;5225722;28;20025;-66
2022/11/16 07:34:10;;;;;;;13.88;6.63;;;;;;;6.45;100.00;99991.44;5274833;22;20040;-87
2022/11/16 07:36:41;;;;;;;12.35;7.20;;;;;;;6.54;100.00;99991.81;5257563;28;20055;-84
2022/11/16 07:39:11;;;;;;;15.23;7.50;;;;;;;6.17;100.00;99935.31;5238985;28;20056;-87
2022/11/16 07:41:43;;;;;;;11.13;6.40;;;;;;;6.30;100.00;99951.84;5257675;28;20029;-85
2022/11/16 07:44:13;;;;;;;10.05;5.38;;;;;;;6.51;100.00;99986.94;5239620;28;20387;-84
2022/11/16 07:46:44;;;;;;;10.50;7.32;;;;;;;6.52;100.00;99978.66;5239267;28;20107;-84
2022/11/16 07:49:16;;;;;;;7.63;7.20;;;;;;;6.56;100.00;99982.44;5257223;28;20025;-85
2022/11/16 07:51:47;;;;;;;9.23;6.10;;;;;;;6.41;100.00;99963.47;5257585;28;20028;-83
2022/11/16 07:54:17;;;;;;;10.90;5.93;;;;;;;6.53;100.00;99974.09;5240122;28;20027;-83
2022/11/16 07:56:47;;;;;;;12.95;6.20;;;;;;;6.05;100.00;99917.50;5242913;28;20025;-83
2022/11/16 07:59:18;;;;;;;12.10;7.35;;;;;;;6.57;100.00;99984.06;5239159;28;20070;-83
2022/11/16 08:01:48;;;;;;;17.60;7.20;;;;;;;6.71;100.00;100020.16;5243893;28;20083;-83
2022/11/16 08:04:18;;;;;;;12.88;7.30;;;;;;;6.43;100.00;99977.44;5259041;28;20024;-83
2022/11/16 08:06:50;;;;;;;8.18;7.50;;;;;;;6.54;100.00;99973.03;5261459;28;20031;-84
2022/11/16 08:09:20;;;;;;;7.35;6.85;;;;;;;6.26;100.00;99928.47;5249320;28;20076;-82
2022/11/16 08:11:51;;;;;;;10.85;7.25;;;;;;;6.64;100.00;99987.34;5268180;28;20062;-81
2022/11/16 08:14:21;;;;;;;12.93;7.28;;;;;;;6.22;100.00;99919.28;5266484;28;20071;-80
2022/11/16 08:16:52;;;;;;;19.55;7.97;;;;;;;6.57;100.00;99967.97;5266753;28;20036;-81
2022/11/16 08:19:22;;;;;;;7.13;6.43;;;;;;;6.53;100.00;99958.00;5263941;28;20066;-80
2022/11/16 08:21:52;;;;;;;9.60;8.50;;;;;;;6.65;100.00;99972.06;5259547;28;20052;-82
2022/11/16 08:24:23;;;;;;;10.57;7.88;;;;;;;6.75;100.00;99990.97;5262420;28;20032;-82
2022/11/16 08:26:56;;;;;;;15.25;7.72;;;;;;;6.70;100.00;99972.94;5238439;28;20454;-82
2022/11/16 08:29:26;;;;;;;11.30;6.70;;;;;;;6.97;100.00;100007.03;5239119;28;20017;-81
2022/11/16 08:31:56;;;;;;;10.70;7.28;;;;;;;6.79;100.00;99976.00;5260845;28;20036;-80
2022/11/16 08:34:27;;;;;;;15.88;8.15;;;;;;;6.96;100.00;99997.34;5260461;28;20059;-81
2022/11/16 08:36:57;;;;;;;8.30;6.07;;;;;;;6.92;100.00;99991.69;5261320;28;20021;-81
2022/11/16 08:39:28;;;;;;;7.45;6.78;;;;;;;7.06;100.00;100006.31;5235951;28;20021;-81
2022/11/16 08:41:58;;;;;;;20.92;7.95;;;;;;;7.16;100.00;100013.69;5259121;28;20043;-82
2022/11/16 08:44:29;;;;;;;7.18;6.50;;;;;;;7.19;100.00;100001.63;5239807;28;20425;-83
2022/11/16 08:46:59;;;;;;;12.48;6.85;;;;;;;7.07;100.00;99986.47;5260324;28;20021;-82
2022/11/16 08:49:30;;;;;;;10.77;5.10;;;;;;;7.09;100.00;99978.16;5260948;28;20028;-81
2022/11/16 08:52:00;;;;;;;16.98;7.32;;;;;;;7.07;100.00;99977.59;5250098;28;20084;-80
2022/11/16 08:54:30;;;;;;;8.63;7.68;;;;;;;7.17;100.00;99968.84;5252582;28;20020;-80
2022/11/16 08:57:01;;;;;;;15.75;5.93;;;;;;;7.43;100.00;100009.09;5270617;28;20016;-79
2022/11/16 08:59:31;;;;;;;6.10;5.57;;;;;;;7.38;100.00;99992.91;5269117;28;20036;-81
2022/11/16 09:02:01;;;;;;;13.63;6.75;;;;;;;7.25;100.00;99962.97;5251317;28;20032;-81
2022/11/16 09:04:32;;;;;;;7.80;4.68;;;;;;;7.55;100.00;100002.72;5267259;28;20029;-81
2022/11/16 09:07:02;;;;;;;14.10;6.40;;;;;;;7.56;100.00;100002.44;5263295;28;20534;-82
2022/11/16 09:09:33;;;;;;;8.05;4.13;;;;;;;7.48;100.00;99980.66;5264114;28;20036;-81
2022/11/16 09:12:04;;;;;;;6.63;3.88;;;;;;;7.61;100.00;99988.25;5265858;28;20009;-82
2022/11/16 09:14:34;;;;;;;8.38;4.68;;;;;;;7.65;100.00;99989.34;5244696;28;20216;-83
2022/11/16 09:17:04;;;;;;;4.97;4.55;;;;;;;7.87;100.00;100003.47;5244038;28;20096;-82
2022/11/16 09:19:35;;;;;;;5.47;4.90;;;;;;;7.93;100.00;100001.66;5262775;28;20107;-80
2022/11/16 09:22:05;;;;;;;13.18;10.05;;;;;;;7.82;100.00;99973.88;5269598;28;20048;-82
2022/11/16 09:24:36;;;;;;;14.00;5.57;;;;;;;7.73;100.00;99949.38;5271137;28;20032;-82
2022/11/16 09:27:06;;;;;;;5.13;4.72;;;;;;;7.85;100.00;99977.94;5253245;28;20119;-82
2022/11/16 09:29:37;;;;;;;9.45;5.25;;;;;;;8.01;100.00;99987.72;5273515;28;20017;-82
2022/11/16 09:32:07;;;;;;;7.20;5.47;;;;;;;8.18;100.00;100001.78;5255911;28;20016;-82
2022/11/16 09:34:38;;;;;;;10.35;5.05;;;;;;;8.26;100.00;100011.25;5255407;28;20126;-81
2022/11/16 09:37:08;;;;;;;8.48;4.00;;;;;;;8.34;100.00;100002.72;5266504;28;20033;-82
2022/11/16 09:39:39;;;;;;;6.70;3.83;;;;;;;7.95;100.00;99933.09;5245167;28;20025;-82
2022/11/16 09:42:41;;;;;;;7.60;4.65;;;;;;;8.38;100.00;99995.72;5265147;28;20051;-84
2022/11/16 09:45:21;;;;;;;10.27;4.20;;;;;;;8.11;100.00;99950.91;5212881;28;20461;-84
2022/11/16 09:47:58;;;;;;;;;;;;;;;8.53;100.00;99990.41;5245110;28;20093;-85
2022/11/16 09:50:56;;;;;;;9.35;5.30;;;;;;;8.29;100.00;99946.16;5267857;28;19908;-82
2022/11/16 09:53:41;;;;;;;11.85;4.82;;;;;;;8.71;100.00;99998.00;5272559;28;20029;-81
2022/11/16 09:56:18;;;;;;;5.47;4.10;;;;;;;8.92;100.00;99992.69;5267039;28;20028;-82
2022/11/16 09:58:53;;;;;;;5.63;4.03;;;;;;;8.80;100.00;99939.88;5270861;28;20065;-81
2022/11/16 10:01:33;;;;;;;4.35;3.78;;;;;;;9.26;100.00;99983.00;5252179;28;20025;-81
2022/11/16 10:04:14;;;;;;;9.85;5.10;;;;;;;9.38;100.00;99985.47;5270176;28;20060;-81
2022/11/16 10:07:13;;;;;;;4.57;2.63;;;;;;;9.51;100.00;99984.13;5247688;28;20028;-81
2022/11/16 10:09:45;;;;;;;4.72;3.75;;;;;;;9.45;100.00;99965.25;5263734;28;20047;-85
2022/11/16 10:12:29;;;;;;;11.50;3.88;;;;;;;9.34;100.00;99931.28;5250560;28;20016;-82
2022/11/16 10:15:27;;;;;;;7.55;3.75;;;;;;;9.74;100.00;99965.50;5267329;28;20012;-80
2022/11/16 10:18:31;;;;;;;6.55;3.05;;;;;;;10.05;100.00;99987.00;5273339;28;20036;-81
2022/11/16 10:21:27;;;;;;;5.60;3.60;;;;;;;10.04;100.00;99970.00;5267009;28;20486;-84
2022/11/16 10:24:20;;;;;;;4.93;3.85;;;;;;;9.96;100.00;99940.09;5262457;28;20016;-81
2022/11/16 10:27:17;;;;;;;3.55;3.25;;;;;;;10.27;100.00;99992.09;5263030;28;20028;-80
2022/11/16 10:30:09;;;;;;;3.83;3.53;;;;;;;10.22;100.00;99984.81;5252578;28;20078;-83
2022/11/16 10:32:51;;;;;;;8.82;3.78;;;;;;;10.27;100.00;99992.91;5245399;28;20445;-81
2022/11/16 10:35:45;;;;;;;4.50;3.45;;;;;;;10.34;100.00;99987.22;5245033;28;20028;-83
2022/11/16 10:38:21;;;;;;;11.02;5.13;;;;;;;10.32;100.00;99983.97;5263356;28;20088;-81
2022/11/16 10:41:00;;;;;;;4.32;4.13;;;;;;;10.18;100.00;99962.13;5264197;28;20683;-83
2022/11/16 10:43:31;;;;;;;4.13;3.60;;;;;;;10.19;100.00;99968.34;5245969;28;20028;-83
2022/11/16 10:46:04;;;;;;;3.55;3.33;;;;;;;10.27;100.00;99981.31;5263959;28;20036;-83
2022/11/16 10:48:47;;;;;;;5.78;4.30;;;;;;;10.19;100.00;99971.03;5263602;28;20025;-83
2022/11/16 10:51:18;;;;;;;11.38;5.18;;;;;;;9.93;100.00;99927.16;5263086;28;20016;-83
2022/11/16 10:53:48;;;;;;;8.40;4.15;;;;;;;10.27;100.00;99976.72;5260615;28;20474;-81
2022/11/16 10:56:28;;;;;;;4.57;4.25;;;;;;;10.45;100.00;99972.59;5263362;28;20051;-83
2022/11/16 10:59:11;;;;;;;7.28;4.03;;;;;;;10.45;100.00;99954.50;5244193;28;20024;-81
2022/11/16 11:01:49;;;;;;;5.63;3.53;;;;;;;10.61;100.00;99962.53;5244946;28;20031;-82
2022/11/16 11:04:26;;;;;;;8.43;3.42;;;;;;;10.70;100.00;99958.94;5261998;28;20025;-83
2022/11/16 11:07:27;;;;;;;3.08;2.88;;;;;;;11.05;100.00;99949.81;5261942;28;20024;-81
2022/11/16 11:09:58;;;;;;;4.50;4.10;;;;;;;10.86;100.00;99889.47;5248113;28;20386;-83
2022/11/16 11:12:38;;;;;;;8.45;4.43;;;;;;;10.94;100.00;99917.78;5248810;28;20028;-83
2022/11/16 11:15:12;;;;;;;3.15;2.88;;;;;;;11.22;100.00;99944.03;5247797;28;20024;-83
2022/11/16 11:17:46;;;;;;;13.77;3.65;;;;;;;10.95;100.00;99884.28;5265637;28;20024;-83
2022/11/16 11:20:16;;;;;;;3.75;2.92;;;;;;;11.40;100.00;99943.34;5264113;28;20016;-83
2022/11/16 11:22:56;;;;;;;3.53;3.22;;;;;;;11.12;100.00;99884.66;5264165;28;20050;-82
2022/11/16 11:25:34;;;;;;;4.75;3.65;;;;;;;11.21;100.00;99926.22;5246606;28;20028;-82
2022/11/16 11:28:25;;;;;;;9.65;3.53;;;;;;;11.05;100.00;99895.78;5246770;28;20101;-81
2022/11/16 11:31:15;;;;;;;3.08;2.53;;;;;;;11.37;100.00;99934.97;5245273;28;20021;-81
2022/11/16 11:33:52;;;;;;;10.43;4.40;;;;;;;11.19;100.00;99905.97;5245787;28;20100;-84
2022/11/16 11:36:40;;;;;;;4.38;3.97;;;;;;;11.10;100.00;99903.06;5262640;28;20212;-83
2022/11/16 11:39:10;;;;;;;4.10;3.60;;;;;;;11.26;100.00;99936.94;5246863;28;20223;-82
2022/11/16 11:41:58;;;;;;;6.35;3.40;;;;;;;11.34;100.00;99919.31;5246664;28;20046;-80
2022/11/16 11:44:37;;;;;;;4.13;3.80;;;;;;;11.46;100.00;99907.06;5264460;28;20075;-82
2022/11/16 11:47:29;;;;;;;8.80;3.85;;;;;;;11.55;100.00;99919.97;5246743;28;20024;-82
2022/11/16 11:50:20;;;;;;;12.50;4.50;;;;;;;11.41;100.00;99920.63;5246123;28;20032;-81
2022/11/16 11:53:09;;;;;;;9.93;4.45;;;;;;;11.24;100.00;99920.25;5245185;28;20036;-81
2022/11/16 11:55:39;;;;;;;4.80;4.43;;;;;;;10.91;100.00;99889.44;5245259;28;20021;-85
2022/11/16 11:58:17;;;;;;;7.93;4.10;;;;;;;11.10;100.00;99913.84;5243604;28;20024;-81
2022/11/16 12:01:19;;;;;;;6.63;4.25;;;;;;;11.09;100.00;99898.72;5243531;28;20024;-84
2022/11/16 12:04:11;;;;;;;8.15;3.25;;;;;;;11.28;100.00;99909.66;5261968;28;20020;-83
2022/11/16 12:07:06;;;;;;;2.85;2.65;;;;;;;11.27;100.00;99884.50;5262871;28;20039;-84
2022/11/16 12:10:05;;;;;;;2.65;2.63;;;;;;;11.62;100.00;99890.66;5263206;28;20052;-81
2022/11/16 12:13:11;;;;;;;8.10;3.47;;;;;;;11.72;100.00;99867.03;5264507;28;20028;-83
2022/11/16 12:15:58;;;;;;;2.42;2.33;;;;;;;12.16;100.00;99885.75;5237459;28;20522;-81
2022/11/16 12:18:54;;;;;;;2.67;2.58;;;;;;;12.15;100.00;99876.00;5262211;28;20422;-82
2022/11/16 12:21:43;;;;;;;3.13;2.85;;;;;;;11.94;100.00;99858.41;5264744;28;20035;-82
2022/11/16 12:24:31;;;;;;;10.07;4.30;;;;;;;11.73;100.00;99848.91;5269613;28;20016;-81
2022/11/16 12:27:25;;;;;;;1.88;1.80;;;;;;;11.72;100.00;99874.34;5250214;28;20078;-80
2022/11/16 12:30:08;;;;;;;11.20;3.83;;;;;;;11.60;100.00;99869.31;5251533;28;20020;-78
2022/11/16 12:32:50;;;;;;;6.53;3.70;;;;;;;11.59;100.00;99875.00;5268083;28;20044;-83
2022/11/16 12:35:29;;;;;;;2.70;2.50;;;;;;;11.73;100.00;99873.25;5252069;28;20081;-80
2022/11/16 12:38:17;;;;;;;5.68;3.00;;;;;;;11.87;100.00;99863.38;5270371;28;20031;-81
2022/11/16 12:41:45;;;;;;;4.05;3.75;;;;;;;11.99;100.00;99855.66;5267024;28;20036;-82
2022/11/16 12:44:38;;;;;;;2.83;2.33;;;;;;;11.79;100.00;99815.34;5185035;28;20035;-81
2022/11/16 12:47:22;;;;;;;3.78;3.42;;;;;;;12.16;100.00;99850.56;5184690;28;20026;-81